Time;durP1;ratioP1;P1;durP2;ratioP2;P2;SDS_P1;SDS_P2;PMS_P1;PMS_P2;Temp;Humidity;BMP_temperature;BMP_pressure;BME280_temperature;BME280_humidity;BME280_pressure;Samples;Min_cycle;Max_cycle;Signal;HPM_P1;HPM_P2
2022/06/17 00:01:22;;;;;;;8.80;4.90;;;;;;;13.92;71.10;99640.63;104823;1277;22585;-57
2022/06/17 00:03:49;;;;;;;15.40;5.30;;;;;;;13.87;71.32;99639.85;109097;1277;23601;-58
2022/06/17 00:06:16;;;;;;;9.00;5.00;;;;;;;13.83;71.24;99636.55;108889;1277;138096;-58
2022/06/17 00:08:43;;;;;;;10.40;5.30;;;;;;;13.79;71.31;99634.73;109025;1279;22523;-58
2022/06/17 00:11:21;;;;;;;11.00;4.80;;;;;;;13.78;71.50;99638.45;108525;1279;140863;-57
2022/06/17 00:13:47;;;;;;;10.70;5.10;;;;;;;13.76;71.82;99643.17;108829;1277;23356;-58
2022/06/17 00:16:16;;;;;;;10.00;4.70;;;;;;;13.75;71.92;99643.82;109021;1277;23318;-58
2022/06/17 00:18:43;;;;;;;11.80;5.60;;;;;;;13.73;72.14;99644.04;108853;1277;137889;-58
2022/06/17 00:21:26;;;;;;;9.60;5.00;;;;;;;13.73;72.03;99644.64;109015;1277;23819;-58
2022/06/17 00:23:52;;;;;;;8.50;4.60;;;;;;;13.73;72.10;99641.58;108859;1278;137806;-58
2022/06/17 00:26:19;;;;;;;8.80;4.60;;;;;;;13.72;72.32;99638.13;108851;1279;22638;-58
2022/06/17 00:28:48;;;;;;;9.70;5.50;;;;;;;13.71;72.38;99636.42;108868;1277;138325;-57
2022/06/17 00:31:15;;;;;;;11.80;5.40;;;;;;;13.70;72.22;99641.59;108879;1279;22502;-57
2022/06/17 00:33:42;;;;;;;7.90;4.70;;;;;;;13.69;72.34;99641.60;108821;1279;23137;-58
2022/06/17 00:36:14;;;;;;;12.00;5.60;;;;;;;13.69;72.30;99640.50;108805;1278;138992;-58
2022/06/17 00:38:41;;;;;;;9.70;5.40;;;;;;;13.68;72.26;99634.75;108834;1277;23465;-58
2022/06/17 00:41:30;;;;;;;10.80;5.10;;;;;;;13.69;72.39;99635.63;108886;1277;137793;-57
2022/06/17 00:43:58;;;;;;;11.90;6.00;;;;;;;13.69;72.39;99630.21;108849;1279;23195;-57
2022/06/17 00:46:41;;;;;;;7.70;5.40;;;;;;;13.69;72.60;99628.95;106409;1279;138166;-47
2022/06/17 00:49:17;;;;;;;13.00;6.20;;;;;;;13.69;72.56;99627.90;108834;1279;22629;-47
2022/06/17 00:52:00;;;;;;;14.10;7.40;;;;;;;13.70;72.66;99627.41;108849;1277;22259;-47
2022/06/17 00:54:39;;;;;;;16.60;7.40;;;;;;;13.69;72.57;99627.31;108842;1279;138131;-47
2022/06/17 00:57:22;;;;;;;12.40;6.50;;;;;;;13.70;72.50;99628.45;108885;1279;22430;-47
2022/06/17 01:00:04;;;;;;;13.90;7.40;;;;;;;13.70;72.40;99628.17;108725;1279;138225;-48
2022/06/17 01:02:34;;;;;;;15.70;7.80;;;;;;;13.68;72.52;99629.00;108872;1279;22451;-48
2022/06/17 01:05:03;;;;;;;14.30;7.60;;;;;;;13.66;72.51;99622.54;108835;1277;138535;-48
2022/06/17 01:07:41;;;;;;;12.10;7.10;;;;;;;13.65;72.40;99620.57;109054;1277;22430;-48
2022/06/17 01:10:11;;;;;;;14.00;8.30;;;;;;;13.65;72.52;99622.20;108784;1279;22444;-49
2022/06/17 01:12:42;;;;;;;16.00;8.10;;;;;;;13.66;72.52;99621.83;109069;1274;138262;-49
2022/06/17 01:15:09;;;;;;;20.50;9.70;;;;;;;13.67;72.67;99623.48;109171;1274;23137;-51
2022/06/17 01:17:37;;;;;;;22.90;11.20;;;;;;;13.69;72.64;99620.80;109011;1274;139172;-49
2022/06/17 01:20:05;;;;;;;19.30;10.00;;;;;;;13.67;72.36;99615.81;109090;1276;22437;-49
2022/06/17 01:22:36;;;;;;;18.30;9.20;;;;;;;13.65;72.51;99613.95;109024;1275;138974;-49
2022/06/17 01:25:07;;;;;;;20.20;10.00;;;;;;;13.64;72.42;99611.80;109196;1276;22496;-50
2022/06/17 01:27:58;;;;;;;22.10;9.30;;;;;;;13.63;72.59;99609.50;109216;1276;23369;-49
2022/06/17 01:30:31;;;;;;;18.40;9.80;;;;;;;13.62;72.66;99607.97;108430;1282;139161;-49
2022/06/17 01:33:00;;;;;;;17.70;9.60;;;;;;;13.61;72.73;99605.52;108444;1281;22507;-49
2022/06/17 01:35:30;;;;;;;22.60;9.10;;;;;;;13.59;72.80;99605.71;108275;1282;138972;-49
2022/06/17 01:37:57;;;;;;;21.70;9.20;;;;;;;13.57;72.62;99605.77;108393;1281;22476;-49
2022/06/17 01:40:28;;;;;;;20.00;9.60;;;;;;;13.54;72.69;99604.87;108352;1281;139244;-50
2022/06/17 01:42:58;;;;;;;35.20;11.70;;;;;;;13.53;73.12;99602.08;108493;1282;22557;-49
2022/06/17 01:45:24;;;;;;;30.90;10.40;;;;;;;13.52;73.06;99598.73;107867;1282;22622;-49
2022/06/17 01:47:51;;;;;;;25.50;10.40;;;;;;;13.52;73.12;99601.42;104150;1282;138390;-48
2022/06/17 01:50:19;;;;;;;;;;;;;;;13.53;73.30;99602.08;104380;1283;25233;-48
2022/06/17 01:52:57;;;;;;;36.10;14.90;;;;;;;13.54;73.47;99598.80;104174;1283;124868;-48
2022/06/17 01:55:27;;;;;;;35.60;15.00;;;;;;;13.53;73.34;99594.46;104166;1283;22675;-48
2022/06/17 01:58:03;;;;;;;39.80;14.30;;;;;;;13.54;73.27;99594.41;108536;1282;22541;-49
2022/06/17 02:00:32;;;;;;;30.30;13.70;;;;;;;13.53;73.17;99595.51;108137;1282;139182;-49
2022/06/17 02:03:23;;;;;;;36.60;14.50;;;;;;;13.53;73.43;99596.60;108226;1282;22491;-49
2022/06/17 02:05:54;;;;;;;35.00;14.40;;;;;;;13.54;73.42;99597.86;108388;1282;138622;-49
2022/06/17 02:08:20;;;;;;;29.60;13.40;;;;;;;13.57;73.56;99602.27;108658;1276;22452;-49
2022/06/17 02:10:49;;;;;;;28.30;12.70;;;;;;;13.60;73.32;99593.67;109058;1276;139880;-49
2022/06/17 02:13:16;;;;;;;20.30;11.00;;;;;;;13.67;73.16;99593.63;108908;1278;23653;-49
2022/06/17 02:16:09;;;;;;;22.70;10.10;;;;;;;13.70;73.20;99588.26;108981;1276;23280;-49
2022/06/17 02:18:51;;;;;;;21.40;10.20;;;;;;;13.72;73.19;99587.90;109151;1274;23373;-49
2022/06/17 02:21:22;;;;;;;19.00;9.80;;;;;;;13.72;73.29;99588.06;109221;1275;22440;-49
2022/06/17 02:23:49;;;;;;;23.80;10.10;;;;;;;13.72;73.51;99587.46;109035;1276;138571;-48
2022/06/17 02:26:16;;;;;;;19.80;10.30;;;;;;;13.73;73.74;99582.21;108967;1276;22524;-47
2022/06/17 02:28:43;;;;;;;19.00;9.80;;;;;;;13.77;74.00;99579.20;108779;1274;138835;-47
2022/06/17 02:31:11;;;;;;;18.20;9.40;;;;;;;13.81;74.17;99581.39;108898;1274;23247;-47
2022/06/17 02:33:38;;;;;;;20.60;10.20;;;;;;;13.85;74.17;99581.48;109018;1275;22443;-47
2022/06/17 02:36:09;;;;;;;23.20;11.50;;;;;;;13.89;74.34;99576.59;108934;1277;139038;-47
2022/06/17 02:38:38;;;;;;;21.70;10.70;;;;;;;13.95;74.53;99573.57;108993;1277;22528;-47
2022/06/17 02:41:07;;;;;;;24.80;10.20;;;;;;;14.00;74.67;99571.23;109146;1274;139360;-47
2022/06/17 02:43:36;;;;;;;27.20;10.40;;;;;;;14.05;74.61;99572.38;108959;1276;22448;-47
2022/06/17 02:46:11;;;;;;;27.00;10.90;;;;;;;14.10;74.84;99568.86;109320;1275;23077;-49
2022/06/17 02:48:57;;;;;;;24.40;12.50;;;;;;;14.17;75.06;99572.92;108926;1275;139506;-49
2022/06/17 02:51:25;;;;;;;22.30;10.00;;;;;;;14.27;74.96;99569.05;109141;1274;22452;-49
2022/06/17 02:53:51;;;;;;;18.60;10.60;;;;;;;14.36;74.98;99572.19;109066;1275;140249;-49
2022/06/17 02:56:20;;;;;;;19.70;9.70;;;;;;;14.45;74.88;99570.03;107184;1276;24631;-49
2022/06/17 02:59:22;;;;;;;22.10;10.70;;;;;;;14.57;75.01;99571.02;108926;1276;138492;-49
2022/06/17 03:01:50;;;;;;;14.60;8.80;;;;;;;14.70;75.16;99565.08;108999;1276;22436;-49
2022/06/17 03:04:44;;;;;;;20.30;9.20;;;;;;;14.80;75.08;99564.57;109003;1276;139085;-49
2022/06/17 03:07:15;;;;;;;18.10;8.80;;;;;;;14.90;75.26;99564.94;109061;1274;22410;-49
2022/06/17 03:09:43;;;;;;;16.40;8.40;;;;;;;14.99;75.48;99565.37;109141;1274;22451;-49
2022/06/17 03:12:28;;;;;;;25.00;10.00;;;;;;;15.08;75.33;99564.47;109214;1274;139200;-49
2022/06/17 03:15:08;;;;;;;19.80;8.60;;;;;;;15.17;74.93;99561.37;109185;1276;22472;-49
2022/06/17 03:17:41;;;;;;;24.60;8.70;;;;;;;15.28;74.31;99562.61;108955;1276;139952;-50
2022/06/17 03:20:10;;;;;;;27.50;8.60;;;;;;;15.36;73.68;99562.31;109124;1274;22580;-49
2022/06/17 03:22:37;;;;;;;18.20;8.70;;;;;;;15.44;73.06;99562.13;108986;1276;138714;-49
2022/06/17 03:25:14;;;;;;;26.30;9.40;;;;;;;15.54;72.86;99566.67;109134;1276;22571;-49
2022/06/17 03:27:43;;;;;;;21.90;10.30;;;;;;;15.64;72.62;99566.14;105086;1274;24487;-49
2022/06/17 03:30:11;;;;;;;24.10;9.50;;;;;;;15.72;72.10;99568.20;109135;1274;138838;-50
2022/06/17 03:32:41;;;;;;;30.50;11.70;;;;;;;15.80;71.81;99561.80;109069;1277;22455;-51
2022/06/17 03:35:20;;;;;;;19.00;9.60;;;;;;;15.88;71.49;99569.08;107786;1279;139435;-49
2022/06/17 03:37:53;;;;;;;21.30;10.10;;;;;;;15.95;71.20;99564.77;105095;1274;22577;-48
2022/06/17 03:40:32;;;;;;;20.60;11.80;;;;;;;16.01;70.91;99565.56;104886;1276;138898;-49
2022/06/17 03:43:17;;;;;;;22.10;10.60;;;;;;;16.08;70.36;99563.14;109070;1274;22546;-49
2022/06/17 03:45:52;;;;;;;21.10;9.60;;;;;;;16.13;70.29;99555.38;109133;1276;22503;-49
2022/06/17 03:48:42;;;;;;;21.60;9.50;;;;;;;16.20;70.12;99557.69;108974;1274;138240;-49
2022/06/17 03:51:14;;;;;;;20.20;9.70;;;;;;;16.28;69.90;99557.00;109116;1277;22532;-49
2022/06/17 03:53:42;;;;;;;15.40;10.20;;;;;;;16.35;69.52;99562.73;108942;1274;139954;-50
2022/06/17 03:56:24;;;;;;;19.40;9.10;;;;;;;16.42;68.94;99557.20;108915;1276;22445;-50
2022/06/17 03:58:52;;;;;;;20.50;9.30;;;;;;;16.49;68.18;99557.97;109050;1276;139620;-50
2022/06/17 04:01:20;;;;;;;20.90;7.60;;;;;;;16.55;67.60;99556.41;108906;1278;22905;-49
2022/06/17 04:03:56;;;;;;;21.90;7.30;;;;;;;16.63;67.34;99562.64;109117;1277;23349;-50
2022/06/17 04:43:31;;;;;;;15.70;6.00;;;;;;;17.46;61.46;99543.21;105553;1268;23045;-48
2022/06/17 04:46:04;;;;;;;12.20;6.20;;;;;;;17.54;61.31;99549.80;104776;1276;22586;-48
2022/06/17 04:48:32;;;;;;;17.80;7.00;;;;;;;17.59;61.08;99545.45;108904;1272;137602;-49
2022/06/17 04:50:59;;;;;;;13.10;6.30;;;;;;;17.66;60.86;99546.57;109258;1273;23702;-48
2022/06/17 04:53:26;;;;;;;11.80;5.70;;;;;;;17.74;60.46;99543.84;108977;1274;139955;-49
2022/06/17 04:56:20;;;;;;;10.10;5.50;;;;;;;17.82;60.00;99542.85;108878;1277;22538;-49
2022/06/17 04:59:48;;;;;;;11.10;4.80;;;;;;;17.92;59.69;99542.91;108934;1274;138827;-49
2022/06/17 05:02:21;;;;;;;12.40;4.50;;;;;;;18.03;59.08;99543.04;108535;1281;22467;-49
2022/06/17 05:05:21;;;;;;;9.80;4.60;;;;;;;18.15;58.32;99543.86;108104;1282;138007;-49
2022/06/17 05:07:49;;;;;;;9.80;4.80;;;;;;;18.24;58.07;99536.42;108443;1281;22469;-49
2022/06/17 05:10:35;;;;;;;7.90;4.20;;;;;;;18.35;57.38;99536.24;108450;1281;138770;-49
2022/06/17 05:13:03;;;;;;;18.90;4.70;;;;;;;18.44;57.02;99533.52;108492;1281;22543;-49
2022/06/17 05:15:29;;;;;;;15.10;5.60;;;;;;;18.55;57.15;99532.23;108505;1281;22517;-49
2022/06/17 05:17:56;;;;;;;13.30;5.00;;;;;;;18.66;57.39;99528.85;108483;1281;137754;-49
2022/06/17 05:20:24;;;;;;;7.60;4.10;;;;;;;18.84;57.21;99529.04;108717;1280;22473;-48
2022/06/17 05:23:04;;;;;;;12.60;4.80;;;;;;;19.06;56.56;99532.54;108347;1281;138475;-49
2022/06/17 05:25:38;;;;;;;8.20;3.80;;;;;;;19.38;55.55;99527.88;108691;1281;22804;-49
2022/06/17 05:28:07;;;;;;;5.40;3.40;;;;;;;19.73;54.70;99524.64;108554;1281;22382;-49
2022/06/17 05:30:38;;;;;;;8.40;3.70;;;;;;;20.09;53.18;99523.29;108475;1281;138778;-49
2022/06/17 05:33:10;;;;;;;9.30;3.50;;;;;;;20.49;52.12;99521.28;108699;1280;22282;-49
2022/06/17 05:35:37;;;;;;;8.20;4.70;;;;;;;20.85;50.95;99515.45;107781;1283;137273;-48
2022/06/17 05:38:04;;;;;;;15.20;4.10;;;;;;;21.21;50.15;99511.48;104527;1278;24338;-47
2022/06/17 05:40:32;;;;;;;10.80;3.70;;;;;;;21.57;49.28;99511.35;104643;1279;138708;-47
2022/06/17 06:05:57;;;;;;;7.00;2.90;;;;;;;23.02;43.88;99503.49;109041;1274;138098;-57
2022/06/17 06:08:24;;;;;;;8.90;2.80;;;;;;;23.02;44.00;99499.94;109130;1274;23544;-57
2022/06/17 06:10:52;;;;;;;5.00;2.60;;;;;;;23.03;43.46;99501.95;109018;1274;138653;-56
2022/06/17 06:13:22;;;;;;;3.30;2.20;;;;;;;23.06;43.60;99502.68;109094;1275;23527;-57
2022/06/17 06:15:51;;;;;;;9.90;2.30;;;;;;;23.08;43.50;99496.41;109203;1275;22517;-58
2022/06/17 06:18:28;;;;;;;8.70;2.20;;;;;;;23.09;43.12;99495.34;109001;1274;137820;-58
2022/06/17 06:20:55;;;;;;;4.60;2.20;;;;;;;23.06;42.61;99498.49;109329;1274;22638;-57
2022/06/17 06:23:25;;;;;;;5.50;1.80;;;;;;;23.01;42.94;99497.88;109151;1276;137108;-56
2022/06/17 06:25:52;;;;;;;8.80;2.20;;;;;;;23.01;42.89;99498.89;109201;1274;23141;-57
2022/06/17 06:28:23;;;;;;;3.20;1.90;;;;;;;23.00;42.21;99496.57;109110;1276;22401;-57
2022/06/17 06:31:05;;;;;;;7.80;2.20;;;;;;;22.98;42.07;99495.31;109196;1275;22567;-57
2022/06/17 06:33:32;;;;;;;5.10;1.80;;;;;;;22.94;42.29;99497.64;109257;1274;23549;-57
2022/06/17 06:35:59;;;;;;;2.80;2.20;;;;;;;22.92;42.91;99493.77;109035;1274;137327;-56
2022/06/17 06:38:26;;;;;;;4.10;2.40;;;;;;;22.89;43.17;99489.52;109063;1277;22429;-57
2022/06/17 06:40:53;;;;;;;3.70;1.90;;;;;;;22.87;42.60;99488.02;109191;1274;137719;-57
2022/06/17 06:43:21;;;;;;;5.80;2.10;;;;;;;22.84;42.83;99491.78;109258;1276;22440;-57
2022/06/17 06:46:08;;;;;;;4.60;1.80;;;;;;;22.82;42.74;99493.30;109284;1274;22438;-58
2022/06/17 06:48:36;;;;;;;4.10;1.90;;;;;;;22.81;42.39;99490.46;109202;1274;138208;-57
2022/06/17 06:51:03;;;;;;;3.10;1.90;;;;;;;22.77;42.79;99488.42;109320;1274;22511;-57
2022/06/17 06:53:30;;;;;;;4.10;2.10;;;;;;;22.76;42.67;99488.33;109164;1275;138359;-58
2022/06/17 06:55:57;;;;;;;3.80;2.20;;;;;;;22.76;42.18;99490.88;109289;1275;22501;-58
2022/06/17 06:58:24;;;;;;;5.80;2.00;;;;;;;22.73;42.32;99488.35;109124;1275;138999;-58
2022/06/17 07:00:54;;;;;;;6.70;2.10;;;;;;;22.69;42.47;99486.11;109276;1275;22623;-57
2022/06/17 07:03:23;;;;;;;5.50;2.00;;;;;;;22.68;42.59;99484.40;109118;1274;23584;-58
2022/06/17 07:05:54;;;;;;;5.50;2.10;;;;;;;22.67;42.82;99487.05;109103;1274;138163;-57
2022/06/17 07:08:23;;;;;;;3.10;1.80;;;;;;;22.68;42.42;99486.71;109240;1274;23315;-57
2022/06/17 07:10:51;;;;;;;3.70;1.60;;;;;;;22.71;42.36;99488.40;109162;1274;139187;-58
2022/06/17 07:13:19;;;;;;;4.50;2.40;;;;;;;22.76;42.73;99487.89;109291;1274;22453;-57
2022/06/17 07:15:47;;;;;;;3.50;1.90;;;;;;;22.82;43.22;99485.98;108181;1276;22649;-57
2022/06/17 07:18:22;;;;;;;5.60;1.90;;;;;;;22.88;42.80;99484.50;109158;1274;138979;-57
2022/06/17 07:20:53;;;;;;;6.00;1.90;;;;;;;22.96;42.68;99487.68;109268;1275;23444;-57
2022/06/17 07:23:22;;;;;;;3.70;2.10;;;;;;;23.00;42.48;99484.02;109175;1274;137398;-57
2022/06/17 07:25:49;;;;;;;5.70;1.80;;;;;;;23.03;42.14;99484.39;109324;1274;22520;-57
2022/06/17 07:28:22;;;;;;;7.10;2.90;;;;;;;23.07;41.74;99487.88;109290;1276;22528;-57
2022/06/17 07:30:50;;;;;;;10.50;2.10;;;;;;;23.12;41.44;99485.11;109251;1277;22727;-56
2022/06/17 07:33:17;;;;;;;3.00;1.70;;;;;;;23.16;40.36;99485.66;109299;1275;23599;-57
2022/06/17 07:35:45;;;;;;;4.80;1.90;;;;;;;23.17;39.87;99488.56;109189;1274;138148;-56
2022/06/17 07:40:59;;;;;;;6.00;2.00;;;;;;;23.18;40.01;99488.10;109229;1274;138555;-57
2022/06/17 07:43:26;;;;;;;2.70;1.50;;;;;;;23.20;39.71;99487.08;109297;1274;22499;-58
2022/06/17 07:45:53;;;;;;;2.20;1.20;;;;;;;23.22;39.57;99485.39;107996;1276;25315;-58
2022/06/17 07:48:20;;;;;;;1.70;1.30;;;;;;;23.22;39.14;99487.23;104886;1276;137494;-57
2022/06/17 07:50:47;;;;;;;2.30;1.30;;;;;;;23.26;39.27;99488.14;105011;1275;22683;-57
2022/06/17 07:53:14;;;;;;;3.80;1.60;;;;;;;23.30;39.75;99488.23;104863;1277;138005;-58
2022/06/17 07:55:41;;;;;;;4.70;1.80;;;;;;;23.35;39.24;99490.21;105104;1277;22606;-58
2022/06/17 07:58:10;;;;;;;6.40;1.70;;;;;;;23.38;38.95;99493.44;104964;1276;24260;-58
2022/06/17 08:00:41;;;;;;;4.10;1.70;;;;;;;23.41;39.19;99496.80;104980;1276;137925;-57
2022/06/17 08:03:11;;;;;;;6.00;1.80;;;;;;;23.45;38.53;99495.41;109342;1275;22559;-58
2022/06/17 08:05:40;;;;;;;5.00;2.20;;;;;;;23.46;38.60;99495.23;109197;1274;138785;-57
2022/06/17 08:08:08;;;;;;;7.60;2.00;;;;;;;23.47;37.83;99491.19;109356;1274;23100;-58
2022/06/17 08:10:35;;;;;;;4.00;1.90;;;;;;;23.46;38.32;99489.41;109234;1276;138470;-57
2022/06/17 08:13:03;;;;;;;4.90;2.10;;;;;;;23.43;38.75;99488.45;109308;1274;22575;-58
2022/06/17 08:15:30;;;;;;;2.40;1.60;;;;;;;23.44;38.71;99487.13;109261;1275;22515;-58
2022/06/17 08:17:57;;;;;;;5.90;1.80;;;;;;;23.45;38.39;99484.15;109090;1276;138698;-58
2022/06/17 08:20:26;;;;;;;4.90;2.30;;;;;;;23.47;38.18;99484.75;109293;1276;22413;-58
2022/06/17 08:22:53;;;;;;;9.10;1.90;;;;;;;23.48;38.29;99487.19;109165;1276;138312;-58
2022/06/17 08:25:20;;;;;;;4.00;1.40;;;;;;;23.48;37.63;99483.92;109286;1276;22512;-58
2022/06/17 08:27:52;;;;;;;1.70;1.30;;;;;;;23.45;37.33;99482.77;109306;1273;23555;-58
2022/06/17 08:30:21;;;;;;;3.90;3.30;;;;;;;23.41;37.78;99485.36;109055;1274;137753;-57
2022/06/17 08:32:48;;;;;;;4.00;1.90;;;;;;;23.41;37.66;99483.03;109354;1274;22471;-58
2022/06/17 08:35:17;;;;;;;4.30;2.10;;;;;;;23.43;37.91;99479.30;109206;1275;137484;-58
2022/06/17 08:37:55;;;;;;;2.90;1.60;;;;;;;23.48;38.19;99478.55;109366;1274;23298;-58
2022/06/17 08:40:30;;;;;;;1.80;1.40;;;;;;;23.58;38.60;99481.11;109358;1274;22450;-58
2022/06/17 08:43:03;;;;;;;1.40;1.30;;;;;;;23.68;37.20;99473.16;109223;1275;22254;-58
2022/06/17 08:45:45;;;;;;;3.30;1.70;;;;;;;23.79;36.54;99476.50;108622;1276;22574;-57
2022/06/17 08:48:31;;;;;;;5.10;1.70;;;;;;;23.87;36.78;99481.15;104905;1274;137522;-57
2022/06/17 08:51:01;;;;;;;3.40;2.10;;;;;;;23.95;36.44;99480.29;105019;1276;25545;-57
2022/06/17 08:53:37;;;;;;;3.80;2.10;;;;;;;24.04;36.47;99474.46;105041;1274;137954;-57
2022/06/17 08:56:19;;;;;;;6.60;1.60;;;;;;;24.13;36.69;99479.18;104999;1275;24521;-57
2022/06/17 08:59:02;;;;;;;5.70;1.70;;;;;;;24.15;35.84;99479.12;104911;1277;139907;-57
2022/06/17 09:01:57;;;;;;;3.20;1.40;;;;;;;24.13;36.30;99478.00;109337;1274;22424;-57
2022/06/17 09:04:31;;;;;;;5.40;1.70;;;;;;;24.09;37.10;99472.80;108976;1274;261417;-57
2022/06/17 09:08:26;;;;;;;3.00;1.60;;;;;;;24.04;36.21;99470.89;102090;1310;545980;-57
2022/06/17 09:11:11;;;;;;;9.20;1.90;;;;;;;23.96;36.18;99472.27;104010;1286;137758;-57
2022/06/17 09:14:00;;;;;;;5.70;1.20;;;;;;;23.92;37.79;99471.52;104090;1287;24450;-57
2022/06/17 09:16:34;;;;;;;4.60;1.60;;;;;;;23.93;37.46;99470.23;103875;1287;138111;-57
2022/06/17 09:19:02;;;;;;;5.10;1.40;;;;;;;23.97;37.80;99468.66;104010;1287;22603;-58
2022/06/17 09:21:36;;;;;;;3.60;1.40;;;;;;;24.01;37.49;99465.44;103834;1286;370288;-58
2022/06/17 09:24:08;;;;;;;5.10;1.70;;;;;;;24.05;37.23;99463.85;104246;1286;137493;-57
2022/06/17 09:26:39;;;;;;;2.80;1.60;;;;;;;24.08;37.25;99464.19;108241;1286;22428;-59
2022/06/17 09:29:14;;;;;;;2.70;1.30;;;;;;;24.12;36.94;99463.50;108224;1286;138005;-57
2022/06/17 09:31:54;;;;;;;2.00;1.40;;;;;;;24.15;37.30;99467.98;108104;1285;22496;-58
2022/06/17 09:34:25;;;;;;;11.30;2.50;;;;;;;24.20;37.01;99463.50;108090;1286;22481;-58
2022/06/17 09:37:12;;;;;;;6.80;2.00;;;;;;;24.24;36.53;99462.64;108014;1286;22477;-58
2022/06/17 09:39:53;;;;;;;3.10;1.60;;;;;;;24.26;36.34;99460.96;108213;1286;22473;-57
2022/06/17 09:42:23;;;;;;;3.90;1.80;;;;;;;24.23;36.32;99456.62;108227;1286;137998;-58
2022/06/17 09:44:52;;;;;;;7.00;1.50;;;;;;;24.19;36.21;99454.11;108153;1285;23529;-57
2022/06/17 09:47:20;;;;;;;6.50;2.00;;;;;;;24.16;36.44;99457.12;108084;1286;137302;-57
2022/06/17 09:49:51;;;;;;;5.70;2.00;;;;;;;24.16;36.92;99447.96;108293;1284;22437;-57
2022/06/17 09:52:52;;;;;;;7.40;2.00;;;;;;;24.20;37.33;99452.06;108239;1285;22443;-57
2022/06/17 09:55:38;;;;;;;5.40;1.70;;;;;;;24.29;37.52;99458.10;107326;1292;23284;-59
2022/06/17 09:58:10;;;;;;;2.60;1.50;;;;;;;24.38;36.50;99454.23;108328;1284;22624;-59
2022/06/17 10:00:41;;;;;;;4.80;2.00;;;;;;;24.46;36.42;99451.93;108017;1286;137914;-58
2022/06/17 10:03:08;;;;;;;3.10;1.70;;;;;;;24.52;35.46;99449.80;108228;1285;23430;-58
2022/06/17 10:05:57;;;;;;;3.10;1.60;;;;;;;24.53;35.30;99446.26;108251;1285;137215;-59
2022/06/17 10:08:57;;;;;;;2.10;1.60;;;;;;;24.54;36.01;99447.33;108304;1286;22281;-59
2022/06/17 10:11:39;;;;;;;4.30;1.70;;;;;;;24.60;36.53;99444.09;108115;1284;139845;-58
2022/06/17 10:14:10;;;;;;;3.60;1.70;;;;;;;24.64;35.66;99443.27;108304;1284;22318;-58
2022/06/17 10:20:22;;;;;;;9.40;2.00;;;;;;;24.67;35.39;99449.85;108256;1284;22480;-58
2022/06/17 10:23:17;;;;;;;2.70;1.90;;;;;;;24.63;34.90;99444.59;108287;1284;138854;-58
2022/06/17 10:25:52;;;;;;;4.00;1.50;;;;;;;24.60;34.69;99440.89;108305;1285;23083;-58
2022/06/17 10:28:21;;;;;;;3.20;1.80;;;;;;;24.60;35.14;99437.15;108242;1284;23336;-58
2022/06/17 10:31:07;;;;;;;3.10;1.80;;;;;;;24.57;34.34;99430.06;108299;1286;22548;-58
2022/06/17 10:33:34;;;;;;;3.50;2.10;;;;;;;24.55;34.77;99431.67;108926;1280;22492;-58
2022/06/17 10:36:01;;;;;;;1.90;1.50;;;;;;;24.55;35.43;99428.88;108699;1280;137300;-58
2022/06/17 10:38:31;;;;;;;3.70;1.80;;;;;;;24.55;35.65;99432.30;109094;1277;22483;-57
2022/06/17 10:40:58;;;;;;;2.90;1.80;;;;;;;24.56;36.10;99430.81;108947;1277;137832;-57
2022/06/17 10:43:32;;;;;;;2.10;1.70;;;;;;;24.55;35.35;99430.00;109040;1278;23415;-58
2022/06/17 10:45:58;;;;;;;2.00;1.20;;;;;;;24.53;35.09;99426.73;109069;1277;22474;-58
2022/06/17 10:48:37;;;;;;;5.10;1.80;;;;;;;24.51;35.20;99424.79;108867;1280;138268;-58
2022/06/17 10:51:04;;;;;;;2.90;1.50;;;;;;;24.48;35.68;99423.11;108971;1280;22450;-57
2022/06/17 10:53:45;;;;;;;1.80;1.50;;;;;;;24.45;35.24;99423.00;108971;1278;137034;-57
2022/06/17 10:56:24;;;;;;;4.80;2.20;;;;;;;24.40;35.65;99416.89;109063;1277;22440;-58
2022/06/17 10:58:56;;;;;;;8.60;2.50;;;;;;;24.36;36.07;99421.86;108864;1277;137434;-57
2022/06/17 11:01:24;;;;;;;16.30;2.70;;;;;;;24.32;36.43;99418.98;109094;1280;22482;-58
2022/06/17 11:04:10;;;;;;;16.30;9.00;;;;;;;24.28;36.17;99420.42;109011;1279;22385;-58
2022/06/17 11:06:45;;;;;;;4.40;2.20;;;;;;;24.24;35.68;99418.09;108926;1280;137184;-58
2022/06/17 11:09:18;;;;;;;4.70;1.70;;;;;;;24.17;35.29;99420.53;109053;1277;22496;-58
2022/06/17 11:14:43;;;;;;;2.50;1.90;;;;;;;23.93;36.07;99424.33;109115;1277;23149;-58
2022/06/17 11:17:30;;;;;;;3.40;1.80;;;;;;;23.86;36.22;99419.81;109005;1277;138434;-57
2022/06/17 11:19:58;;;;;;;;;;;;;;;23.79;36.19;99424.27;108361;1286;23376;-58
2022/06/17 11:22:54;;;;;;;5.00;2.20;;;;;;;23.65;36.55;99421.34;108303;1283;124282;-57
2022/06/17 11:25:32;;;;;;;3.90;1.80;;;;;;;23.50;37.05;99419.09;107330;1294;22477;-58
2022/06/17 11:28:12;;;;;;;4.40;1.80;;;;;;;23.44;37.42;99415.77;107357;1293;22695;-58
2022/06/17 11:30:56;;;;;;;3.40;2.10;;;;;;;23.40;37.62;99418.48;107112;1294;138915;-57
2022/06/17 11:33:32;;;;;;;7.90;2.20;;;;;;;23.36;37.53;99413.30;107247;1294;22428;-57
2022/06/17 11:36:13;;;;;;;2.70;2.40;;;;;;;23.33;37.91;99409.35;107096;1294;137075;-57
2022/06/17 11:38:40;;;;;;;3.20;1.80;;;;;;;23.30;38.17;99408.30;107350;1293;22502;-58
2022/06/17 11:41:25;;;;;;;3.10;1.90;;;;;;;23.30;37.91;99408.39;107266;1293;138770;-58
2022/06/17 11:43:52;;;;;;;4.00;2.60;;;;;;;23.31;38.31;99407.21;107342;1293;22478;-58
2022/06/17 11:46:21;;;;;;;7.50;2.30;;;;;;;23.31;38.77;99402.85;107229;1294;22586;-58
2022/06/17 11:48:59;;;;;;;4.10;2.10;;;;;;;23.35;38.42;99406.09;107037;1294;137175;-59
2022/06/17 11:51:33;;;;;;;6.80;2.40;;;;;;;23.37;38.24;99403.61;107295;1293;22455;-58
2022/06/17 11:54:20;;;;;;;7.30;3.20;;;;;;;23.39;38.76;99408.60;107118;1294;138069;-62
2022/06/17 11:56:47;;;;;;;6.30;3.60;;;;;;;23.48;38.63;99411.39;107249;1288;22501;-63
2022/06/17 11:59:18;;;;;;;7.70;4.10;;;;;;;23.57;38.65;99412.83;107990;1286;137541;-62
2022/06/17 12:01:54;;;;;;;7.60;4.20;;;;;;;23.68;38.74;99411.44;108329;1278;22626;-62
2022/06/17 12:04:45;;;;;;;7.50;3.90;;;;;;;23.79;38.32;99410.61;109096;1277;22480;-62
2022/06/17 12:07:21;;;;;;;6.90;3.70;;;;;;;23.88;37.62;99405.33;105500;1280;22557;-61
2022/06/17 12:09:54;;;;;;;9.90;3.80;;;;;;;23.94;37.88;99404.66;104716;1280;22700;-59
2022/06/17 12:12:21;;;;;;;12.50;4.70;;;;;;;23.98;36.68;99399.75;109028;1277;152511;-60
2022/06/17 12:14:51;;;;;;;7.40;4.50;;;;;;;23.96;37.23;99393.56;108993;1277;23227;-60
2022/06/17 12:17:18;;;;;;;18.70;5.80;;;;;;;23.94;37.28;99391.14;108915;1277;137972;-59
2022/06/17 12:19:53;;;;;;;12.00;4.40;;;;;;;23.94;37.14;99391.30;108892;1280;22425;-59
2022/06/17 12:22:34;;;;;;;7.90;4.00;;;;;;;23.93;37.41;99390.23;108974;1277;22487;-59
2022/06/17 12:25:14;;;;;;;9.40;4.10;;;;;;;23.93;36.78;99390.86;109003;1277;22523;-59
2022/06/17 12:27:46;;;;;;;8.50;4.70;;;;;;;23.92;37.20;99395.20;109047;1277;22476;-59
2022/06/17 12:30:38;;;;;;;12.50;4.60;;;;;;;23.91;36.78;99389.69;108972;1277;137261;-59
2022/06/17 12:33:10;;;;;;;14.20;5.10;;;;;;;23.90;36.75;99391.49;108805;1277;23214;-59
2022/06/17 12:35:38;;;;;;;10.30;4.20;;;;;;;23.87;36.19;99389.24;108846;1277;138458;-59
2022/06/17 12:38:27;;;;;;;7.00;3.70;;;;;;;23.80;36.02;99391.23;109052;1277;23097;-59
2022/06/17 12:41:17;;;;;;;14.90;9.70;;;;;;;23.71;36.66;99386.63;108957;1278;137145;-64
2022/06/17 12:44:07;;;;;;;8.40;5.30;;;;;;;23.66;37.32;99382.35;108950;1278;23270;-59
2022/06/17 12:46:44;;;;;;;8.20;4.70;;;;;;;23.60;37.81;99382.42;108980;1277;137417;-58
2022/06/17 12:55:16;;;;;;;6.70;4.50;;;;;;;23.39;37.85;99381.69;109054;1277;23348;-58
2022/06/17 12:57:49;;;;;;;8.30;4.90;;;;;;;23.26;38.17;99377.20;109003;1278;22450;-58
2022/06/17 13:00:19;;;;;;;7.70;4.10;;;;;;;23.13;38.67;99376.84;108876;1277;137379;-58
2022/06/17 13:03:04;;;;;;;10.30;4.10;;;;;;;23.06;39.07;99374.35;108777;1278;23325;-59
2022/06/17 13:05:31;;;;;;;6.70;4.10;;;;;;;22.98;39.41;99372.56;108896;1277;138328;-60